KLAS/LAS METAR and TAF weather

Enter ICAO airport designator
Station Type Date Time Source
KLAS METAR 2019/12/08 00:56 UTC NOAA

KLAS 080056Z 00000KT 10SM FEW042 OVC120 14/09 A3003 RMK AO2 SLP162 T01440089


Station Type Date Time Source
KLAS Decoded METAR 2019/12/08 00:56 UTC NOAA

MCCARRAN INTERNATIONAL AIRPORT , NV, United States (KLAS) 36-07N 115-16W 636M
Dec 07, 2019 - 07:56 PM EST / 2019.12.08 0056 UTC
Wind: Calm:0
Visibility: 10 mile(s):0
Sky conditions: overcast
Temperature: 57.9 F (14.4 C)
Dew Point: 48.0 F (8.9 C)
Relative Humidity: 69%
Pressure (altimeter): 30.03 in. Hg (1016 hPa)
ob: KLAS 080056Z 00000KT 10SM FEW042 OVC120 14/09 A3003 RMK AO2 SLP162 T01440089
cycle: 1

Station Type Date Time Source
KLAS TAF 2019/12/07 21:54 UTC NOAA

TAF
AMD KLAS 072052Z 0721/0824 05007KT P6SM FEW050 SCT060 BKN100
FM080300 18008KT P6SM SCT060 BKN150
FM081200 21009KT P6SM SCT050 OVC200
FM081900 21010G19KT P6SM VCSH SCT040 BKN080

Example: see airport list